sensor_id;sensor_type;location;lat;lon;timestamp;pressure;altitude;pressure_sealevel;temperature;humidity
35331;BME280;21441;52.190;20.910;2023-04-06T00:01:06;100725.78;;;2.71;50.31
35331;BME280;21441;52.190;20.910;2023-04-06T00:03:34;100729.00;;;2.74;50.66
35331;BME280;21441;52.190;20.910;2023-04-06T00:06:01;100726.13;;;2.53;50.79
35331;BME280;21441;52.190;20.910;2023-04-06T00:08:28;100722.09;;;2.60;50.69
35331;BME280;21441;52.190;20.910;2023-04-06T00:10:56;100720.78;;;2.79;49.86
35331;BME280;21441;52.190;20.910;2023-04-06T00:13:24;100722.97;;;2.85;50.08
35331;BME280;21441;52.190;20.910;2023-04-06T00:15:51;100724.25;;;2.92;49.70
35331;BME280;21441;52.190;20.910;2023-04-06T00:18:18;100726.34;;;2.87;50.09
35331;BME280;21441;52.190;20.910;2023-04-06T00:20:45;100712.78;;;2.80;50.49
35331;BME280;21441;52.190;20.910;2023-04-06T00:23:12;100686.69;;;2.52;50.36
35331;BME280;21441;52.190;20.910;2023-04-06T00:25:39;100712.63;;;2.45;50.51
35331;BME280;21441;52.190;20.910;2023-04-06T00:28:08;100718.22;;;2.40;51.24
35331;BME280;21441;52.190;20.910;2023-04-06T00:30:35;100712.72;;;2.43;50.91
35331;BME280;21441;52.190;20.910;2023-04-06T00:33:03;100710.97;;;2.44;50.46
35331;BME280;21441;52.190;20.910;2023-04-06T00:35:30;100709.66;;;2.50;50.36
35331;BME280;21441;52.190;20.910;2023-04-06T00:37:57;100703.63;;;2.73;50.13
35331;BME280;21441;52.190;20.910;2023-04-06T00:40:24;100703.28;;;2.78;49.49
35331;BME280;21441;52.190;20.910;2023-04-06T00:42:54;100701.06;;;2.84;49.75
35331;BME280;21441;52.190;20.910;2023-04-06T00:45:22;100698.28;;;2.62;50.54
35331;BME280;21441;52.190;20.910;2023-04-06T00:47:50;100701.25;;;2.44;50.86
35331;BME280;21441;52.190;20.910;2023-04-06T00:50:17;100703.66;;;2.47;51.03
35331;BME280;21441;52.190;20.910;2023-04-06T00:52:44;100699.22;;;2.48;51.15
35331;BME280;21441;52.190;20.910;2023-04-06T00:55:11;100700.84;;;2.38;51.32
35331;BME280;21441;52.190;20.910;2023-04-06T00:57:38;100699.69;;;2.42;51.72
35331;BME280;21441;52.190;20.910;2023-04-06T01:00:07;100699.16;;;2.37;51.09
35331;BME280;21441;52.190;20.910;2023-04-06T01:02:35;100705.69;;;2.31;51.36
35331;BME280;21441;52.190;20.910;2023-04-06T01:05:03;100697.16;;;2.27;51.24
35331;BME280;21441;52.190;20.910;2023-04-06T01:07:31;100695.69;;;2.36;51.82
35331;BME280;21441;52.190;20.910;2023-04-06T01:09:57;100696.06;;;2.56;50.95
35331;BME280;21441;52.190;20.910;2023-04-06T01:12:25;100687.81;;;2.73;50.85
35331;BME280;21441;52.190;20.910;2023-04-06T01:14:52;100689.72;;;2.71;50.64
35331;BME280;21441;52.190;20.910;2023-04-06T01:17:19;100695.28;;;2.79;50.98
35331;BME280;21441;52.190;20.910;2023-04-06T01:19:48;100688.28;;;2.54;51.11
35331;BME280;21441;52.190;20.910;2023-04-06T01:22:18;100684.41;;;2.47;51.48
35331;BME280;21441;52.190;20.910;2023-04-06T01:24:46;100676.59;;;2.45;51.17
35331;BME280;21441;52.190;20.910;2023-04-06T01:27:13;100679.13;;;2.47;51.48
35331;BME280;21441;52.190;20.910;2023-04-06T01:29:40;100677.53;;;2.57;51.26
35331;BME280;21441;52.190;20.910;2023-04-06T01:32:09;100675.22;;;2.53;51.21
35331;BME280;21441;52.190;20.910;2023-04-06T01:34:36;100677.66;;;2.30;51.51
35331;BME280;21441;52.190;20.910;2023-04-06T01:37:03;100675.03;;;2.30;51.83
35331;BME280;21441;52.190;20.910;2023-04-06T01:39:31;100681.59;;;2.24;51.74
35331;BME280;21441;52.190;20.910;2023-04-06T01:41:59;100674.09;;;2.31;51.83
35331;BME280;21441;52.190;20.910;2023-04-06T01:44:26;100666.94;;;2.33;51.77
35331;BME280;21441;52.190;20.910;2023-04-06T01:46:56;100682.19;;;2.28;52.26
35331;BME280;21441;52.190;20.910;2023-04-06T01:49:23;100672.81;;;2.37;52.11
35331;BME280;21441;52.190;20.910;2023-04-06T01:51:50;100670.31;;;2.35;52.04
35331;BME280;21441;52.190;20.910;2023-04-06T01:54:17;100659.03;;;2.33;52.34
35331;BME280;21441;52.190;20.910;2023-04-06T01:56:46;100664.31;;;2.33;52.49
35331;BME280;21441;52.190;20.910;2023-04-06T01:59:15;100664.91;;;2.37;52.54
35331;BME280;21441;52.190;20.910;2023-04-06T02:01:43;100661.03;;;2.42;52.61
35331;BME280;21441;52.190;20.910;2023-04-06T02:04:10;100655.13;;;2.39;52.84
35331;BME280;21441;52.190;20.910;2023-04-06T02:06:37;100663.09;;;2.50;52.30
35331;BME280;21441;52.190;20.910;2023-04-06T02:09:04;100656.97;;;2.62;52.44
35331;BME280;21441;52.190;20.910;2023-04-06T02:11:31;100651.72;;;2.50;52.64
35331;BME280;21441;52.190;20.910;2023-04-06T02:13:59;100654.25;;;2.51;52.49
35331;BME280;21441;52.190;20.910;2023-04-06T02:16:27;100658.06;;;2.47;52.49
35331;BME280;21441;52.190;20.910;2023-04-06T02:18:54;100652.72;;;2.36;52.99
35331;BME280;21441;52.190;20.910;2023-04-06T02:21:22;100645.25;;;2.30;53.14
35331;BME280;21441;52.190;20.910;2023-04-06T02:23:49;100651.75;;;2.24;53.18
35331;BME280;21441;52.190;20.910;2023-04-06T02:26:16;100650.91;;;2.36;53.42
35331;BME280;21441;52.190;20.910;2023-04-06T02:28:43;100648.22;;;2.12;53.82
35331;BME280;21441;52.190;20.910;2023-04-06T02:31:12;100644.06;;;2.34;53.92
35331;BME280;21441;52.190;20.910;2023-04-06T02:33:40;100640.38;;;2.36;54.12
35331;BME280;21441;52.190;20.910;2023-04-06T02:36:08;100644.75;;;2.61;53.72
35331;BME280;21441;52.190;20.910;2023-04-06T02:38:35;100642.81;;;2.63;53.51
35331;BME280;21441;52.190;20.910;2023-04-06T02:41:02;100632.44;;;2.62;53.94
35331;BME280;21441;52.190;20.910;2023-04-06T02:43:29;100637.47;;;2.65;54.53
35331;BME280;21441;52.190;20.910;2023-04-06T02:45:56;100643.34;;;2.68;54.43
35331;BME280;21441;52.190;20.910;2023-04-06T02:48:24;100638.09;;;2.68;54.55
35331;BME280;21441;52.190;20.910;2023-04-06T02:50:52;100631.31;;;2.77;54.70
35331;BME280;21441;52.190;20.910;2023-04-06T02:53:19;100626.44;;;2.60;55.52
35331;BME280;21441;52.190;20.910;2023-04-06T02:55:46;100631.00;;;2.45;55.90
35331;BME280;21441;52.190;20.910;2023-04-06T02:58:13;100634.84;;;2.52;56.58
35331;BME280;21441;52.190;20.910;2023-04-06T03:00:40;100637.00;;;2.47;56.85
35331;BME280;21441;52.190;20.910;2023-04-06T03:03:07;100641.19;;;2.50;57.23
35331;BME280;21441;52.190;20.910;2023-04-06T03:05:36;100647.28;;;2.50;57.43
35331;BME280;21441;52.190;20.910;2023-04-06T03:08:03;100641.09;;;2.51;57.14
35331;BME280;21441;52.190;20.910;2023-04-06T03:10:31;100634.06;;;2.39;57.78
35331;BME280;21441;52.190;20.910;2023-04-06T03:12:57;100644.72;;;2.37;58.82
35331;BME280;21441;52.190;20.910;2023-04-06T03:15:25;100643.53;;;2.41;58.68
35331;BME280;21441;52.190;20.910;2023-04-06T03:17:52;100639.44;;;2.37;58.88
35331;BME280;21441;52.190;20.910;2023-04-06T03:20:19;100645.47;;;2.26;59.51
35331;BME280;21441;52.190;20.910;2023-04-06T03:22:47;100645.75;;;2.35;59.36
35331;BME280;21441;52.190;20.910;2023-04-06T03:25:15;100647.97;;;2.28;60.55
35331;BME280;21441;52.190;20.910;2023-04-06T03:27:41;100646.16;;;2.41;59.86
35331;BME280;21441;52.190;20.910;2023-04-06T03:30:09;100647.13;;;2.27;59.99
35331;BME280;21441;52.190;20.910;2023-04-06T03:32:36;100646.50;;;2.24;60.69
35331;BME280;21441;52.190;20.910;2023-04-06T03:35:04;100648.84;;;2.16;61.06
35331;BME280;21441;52.190;20.910;2023-04-06T03:37:31;100653.88;;;2.19;60.54
35331;BME280;21441;52.190;20.910;2023-04-06T03:40:00;100656.19;;;2.11;61.71
35331;BME280;21441;52.190;20.910;2023-04-06T03:42:27;100650.66;;;2.02;62.07
35331;BME280;21441;52.190;20.910;2023-04-06T03:44:54;100654.94;;;2.03;62.93
35331;BME280;21441;52.190;20.910;2023-04-06T03:47:21;100649.91;;;2.00;63.66
35331;BME280;21441;52.190;20.910;2023-04-06T03:49:48;100645.56;;;1.99;63.34
35331;BME280;21441;52.190;20.910;2023-04-06T03:52:15;100647.06;;;1.91;64.38
35331;BME280;21441;52.190;20.910;2023-04-06T03:54:43;100651.47;;;1.90;64.32
35331;BME280;21441;52.190;20.910;2023-04-06T03:57:11;100657.47;;;1.92;64.96
35331;BME280;21441;52.190;20.910;2023-04-06T03:59:38;100650.44;;;1.93;65.15
35331;BME280;21441;52.190;20.910;2023-04-06T04:02:06;100650.09;;;1.97;65.10
35331;BME280;21441;52.190;20.910;2023-04-06T04:04:33;100648.22;;;1.99;65.22
35331;BME280;21441;52.190;20.910;2023-04-06T04:07:00;100658.22;;;1.94;65.86
35331;BME280;21441;52.190;20.910;2023-04-06T04:09:29;100658.63;;;1.88;66.57
35331;BME280;21441;52.190;20.910;2023-04-06T04:11:56;100648.94;;;1.89;67.07
35331;BME280;21441;52.190;20.910;2023-04-06T04:14:24;100655.38;;;1.97;67.56
35331;BME280;21441;52.190;20.910;2023-04-06T04:16:51;100648.09;;;1.75;68.92
35331;BME280;21441;52.190;20.910;2023-04-06T04:19:19;100654.44;;;1.85;68.65
35331;BME280;21441;52.190;20.910;2023-04-06T04:21:46;100656.00;;;1.88;68.88
35331;BME280;21441;52.190;20.910;2023-04-06T04:24:13;100647.59;;;1.96;68.67
35331;BME280;21441;52.190;20.910;2023-04-06T04:26:40;100655.91;;;2.02;68.93
35331;BME280;21441;52.190;20.910;2023-04-06T04:29:08;100644.56;;;1.89;69.65
35331;BME280;21441;52.190;20.910;2023-04-06T04:31:36;100644.97;;;1.96;69.62
35331;BME280;21441;52.190;20.910;2023-04-06T04:34:04;100639.38;;;1.75;70.70
35331;BME280;21441;52.190;20.910;2023-04-06T04:36:32;100642.13;;;1.60;71.35
35331;BME280;21441;52.190;20.910;2023-04-06T04:38:59;100635.91;;;1.74;71.11
35331;BME280;21441;52.190;20.910;2023-04-06T04:41:27;100643.81;;;1.74;71.18
35331;BME280;21441;52.190;20.910;2023-04-06T04:43:54;100640.00;;;1.65;71.41
35331;BME280;21441;52.190;20.910;2023-04-06T04:46:21;100638.84;;;1.70;72.12
35331;BME280;21441;52.190;20.910;2023-04-06T04:48:49;100636.22;;;1.70;71.61
35331;BME280;21441;52.190;20.910;2023-04-06T04:51:16;100637.81;;;1.72;71.45
35331;BME280;21441;52.190;20.910;2023-04-06T04:53:45;100625.72;;;1.82;71.18
35331;BME280;21441;52.190;20.910;2023-04-06T04:56:12;100635.16;;;1.72;71.43
35331;BME280;21441;52.190;20.910;2023-04-06T04:58:39;100633.78;;;1.79;72.11
35331;BME280;21441;52.190;20.910;2023-04-06T05:01:07;100626.22;;;2.00;70.57
35331;BME280;21441;52.190;20.910;2023-04-06T05:03:36;100623.19;;;2.06;70.33
35331;BME280;21441;52.190;20.910;2023-04-06T05:06:05;100624.94;;;2.19;70.49
35331;BME280;21441;52.190;20.910;2023-04-06T05:08:33;100625.47;;;2.11;70.25
35331;BME280;21441;52.190;20.910;2023-04-06T05:11:00;100620.94;;;2.13;70.76
35331;BME280;21441;52.190;20.910;2023-04-06T05:13:29;100631.56;;;2.24;70.55
35331;BME280;21441;52.190;20.910;2023-04-06T05:15:56;100619.16;;;2.14;70.07
35331;BME280;21441;52.190;20.910;2023-04-06T05:18:24;100630.28;;;2.30;69.70
35331;BME280;21441;52.190;20.910;2023-04-06T05:20:51;100635.25;;;2.22;69.60
35331;BME280;21441;52.190;20.910;2023-04-06T05:23:20;100635.53;;;2.30;69.64
35331;BME280;21441;52.190;20.910;2023-04-06T05:25:47;100625.97;;;2.29;68.47
35331;BME280;21441;52.190;20.910;2023-04-06T05:28:14;100624.53;;;1.99;68.69
35331;BME280;21441;52.190;20.910;2023-04-06T05:30:42;100625.69;;;2.08;68.80
35331;BME280;21441;52.190;20.910;2023-04-06T05:33:09;100639.38;;;2.13;68.41
35331;BME280;21441;52.190;20.910;2023-04-06T05:35:36;100631.06;;;2.06;68.67
35331;BME280;21441;52.190;20.910;2023-04-06T05:38:07;100627.06;;;2.14;68.06
35331;BME280;21441;52.190;20.910;2023-04-06T05:40:35;100625.75;;;2.19;67.68
35331;BME280;21441;52.190;20.910;2023-04-06T05:43:03;100627.78;;;2.29;67.01
35331;BME280;21441;52.190;20.910;2023-04-06T05:45:31;100622.72;;;2.25;67.16
35331;BME280;21441;52.190;20.910;2023-04-06T05:47:58;100621.84;;;2.38;66.54
35331;BME280;21441;52.190;20.910;2023-04-06T05:50:25;100618.81;;;2.31;67.40
35331;BME280;21441;52.190;20.910;2023-04-06T05:52:52;100616.22;;;2.55;66.48
35331;BME280;21441;52.190;20.910;2023-04-06T05:55:19;100608.59;;;2.63;65.08
35331;BME280;21441;52.190;20.910;2023-04-06T05:57:48;100623.50;;;2.52;64.85
35331;BME280;21441;52.190;20.910;2023-04-06T06:00:15;100607.88;;;2.61;64.77
35331;BME280;21441;52.190;20.910;2023-04-06T06:02:42;100613.72;;;2.78;64.10
35331;BME280;21441;52.190;20.910;2023-04-06T06:05:10;100616.25;;;3.03;63.40
35331;BME280;21441;52.190;20.910;2023-04-06T06:07:37;100605.34;;;3.08;62.19
35331;BME280;21441;52.190;20.910;2023-04-06T06:10:05;100614.31;;;3.05;63.06
35331;BME280;21441;52.190;20.910;2023-04-06T06:12:32;100607.25;;;3.41;61.75
35331;BME280;21441;52.190;20.910;2023-04-06T06:15:01;100605.19;;;3.34;60.30
35331;BME280;21441;52.190;20.910;2023-04-06T06:17:28;100608.72;;;3.10;60.60
35331;BME280;21441;52.190;20.910;2023-04-06T06:19:55;100603.94;;;3.15;61.31
35331;BME280;21441;52.190;20.910;2023-04-06T06:22:22;100607.84;;;3.09;58.78
35331;BME280;21441;52.190;20.910;2023-04-06T06:24:49;100597.22;;;3.22;58.55
35331;BME280;21441;52.190;20.910;2023-04-06T06:27:16;100606.50;;;3.28;59.00
35331;BME280;21441;52.190;20.910;2023-04-06T06:29:43;100608.47;;;3.13;57.50
35331;BME280;21441;52.190;20.910;2023-04-06T06:32:13;100600.63;;;3.00;58.82
35331;BME280;21441;52.190;20.910;2023-04-06T06:34:40;100607.81;;;3.34;58.54
35331;BME280;21441;52.190;20.910;2023-04-06T06:37:08;100600.34;;;3.16;59.08
35331;BME280;21441;52.190;20.910;2023-04-06T06:39:35;100604.59;;;3.41;57.72
35331;BME280;21441;52.190;20.910;2023-04-06T06:42:02;100591.19;;;3.56;57.79
35331;BME280;21441;52.190;20.910;2023-04-06T06:44:29;100593.38;;;3.15;58.05
35331;BME280;21441;52.190;20.910;2023-04-06T06:46:57;100588.19;;;3.49;57.04
35331;BME280;21441;52.190;20.910;2023-04-06T06:49:25;100580.69;;;3.67;57.08
35331;BME280;21441;52.190;20.910;2023-04-06T06:51:52;100593.53;;;3.71;56.84
35331;BME280;21441;52.190;20.910;2023-04-06T06:54:19;100589.44;;;3.67;56.42
35331;BME280;21441;52.190;20.910;2023-04-06T06:56:46;100583.78;;;3.61;55.99
35331;BME280;21441;52.190;20.910;2023-04-06T06:59:13;100579.19;;;3.40;56.61
35331;BME280;21441;52.190;20.910;2023-04-06T07:01:42;100584.38;;;3.53;56.25
35331;BME280;21441;52.190;20.910;2023-04-06T07:04:09;100588.88;;;3.28;56.52
35331;BME280;21441;52.190;20.910;2023-04-06T07:06:37;100588.50;;;3.22;56.21
35331;BME280;21441;52.190;20.910;2023-04-06T07:09:04;100588.16;;;3.38;56.12
35331;BME280;21441;52.190;20.910;2023-04-06T07:11:32;100582.09;;;3.71;55.98
35331;BME280;21441;52.190;20.910;2023-04-06T07:13:59;100585.59;;;4.05;54.97
35331;BME280;21441;52.190;20.910;2023-04-06T07:16:26;100579.25;;;4.30;55.15
35331;BME280;21441;52.190;20.910;2023-04-06T07:18:53;100584.41;;;3.87;55.60
35331;BME280;21441;52.190;20.910;2023-04-06T07:21:21;100592.97;;;3.44;56.53
35331;BME280;21441;52.190;20.910;2023-04-06T07:23:50;100584.56;;;3.27;57.22
35331;BME280;21441;52.190;20.910;2023-04-06T07:26:17;100583.13;;;3.35;57.80
35331;BME280;21441;52.190;20.910;2023-04-06T07:28:44;100574.53;;;3.55;57.28
35331;BME280;21441;52.190;20.910;2023-04-06T07:31:11;100574.94;;;3.84;56.79
35331;BME280;21441;52.190;20.910;2023-04-06T07:33:38;100572.53;;;3.81;56.86
35331;BME280;21441;52.190;20.910;2023-04-06T07:36:06;100576.25;;;3.79;56.71
35331;BME280;21441;52.190;20.910;2023-04-06T07:38:33;100568.44;;;3.77;57.00
35331;BME280;21441;52.190;20.910;2023-04-06T07:41:02;100582.34;;;3.79;57.54
35331;BME280;21441;52.190;20.910;2023-04-06T07:43:29;100572.88;;;3.77;56.87
35331;BME280;21441;52.190;20.910;2023-04-06T07:45:57;100568.09;;;3.93;57.98
35331;BME280;21441;52.190;20.910;2023-04-06T07:48:25;100586.44;;;3.95;57.31
35331;BME280;21441;52.190;20.910;2023-04-06T07:51:00;100567.94;;;4.17;56.72
35331;BME280;21441;52.190;20.910;2023-04-06T07:53:27;100575.38;;;4.23;56.29
35331;BME280;21441;52.190;20.910;2023-04-06T07:55:54;100567.47;;;4.23;57.15
35331;BME280;21441;52.190;20.910;2023-04-06T07:58:23;100564.19;;;4.42;56.53
35331;BME280;21441;52.190;20.910;2023-04-06T08:00:50;100557.56;;;4.48;55.86
35331;BME280;21441;52.190;20.910;2023-04-06T08:03:17;100564.59;;;4.26;56.33
35331;BME280;21441;52.190;20.910;2023-04-06T08:05:46;100567.84;;;4.07;57.10
35331;BME280;21441;52.190;20.910;2023-04-06T08:08:13;100559.81;;;4.09;57.90
35331;BME280;21441;52.190;20.910;2023-04-06T08:10:41;100568.81;;;4.18;57.37
35331;BME280;21441;52.190;20.910;2023-04-06T08:13:08;100562.22;;;4.01;58.13
35331;BME280;21441;52.190;20.910;2023-04-06T08:15:37;100566.53;;;4.13;57.01
35331;BME280;21441;52.190;20.910;2023-04-06T08:18:04;100552.25;;;4.04;58.28
35331;BME280;21441;52.190;20.910;2023-04-06T08:20:32;100557.38;;;4.17;58.39
35331;BME280;21441;52.190;20.910;2023-04-06T08:22:59;100554.75;;;4.28;57.97
35331;BME280;21441;52.190;20.910;2023-04-06T08:25:26;100547.13;;;4.46;57.14
35331;BME280;21441;52.190;20.910;2023-04-06T08:27:53;100554.53;;;3.98;58.59
35331;BME280;21441;52.190;20.910;2023-04-06T08:30:20;100558.38;;;3.82;59.28
35331;BME280;21441;52.190;20.910;2023-04-06T08:32:50;100559.94;;;3.96;59.55
35331;BME280;21441;52.190;20.910;2023-04-06T08:35:17;100560.41;;;3.67;60.95
35331;BME280;21441;52.190;20.910;2023-04-06T08:37:44;100545.50;;;4.23;60.59
35331;BME280;21441;52.190;20.910;2023-04-06T08:40:12;100560.31;;;3.80;61.56
35331;BME280;21441;52.190;20.910;2023-04-06T08:42:40;100552.97;;;3.84;62.47
35331;BME280;21441;52.190;20.910;2023-04-06T08:45:11;100552.75;;;3.87;63.10
35331;BME280;21441;52.190;20.910;2023-04-06T08:47:39;100541.19;;;4.22;63.20
35331;BME280;21441;52.190;20.910;2023-04-06T08:50:10;100551.31;;;3.83;64.20
35331;BME280;21441;52.190;20.910;2023-04-06T08:52:38;100558.84;;;3.76;68.96
35331;BME280;21441;52.190;20.910;2023-04-06T08:55:07;100552.75;;;3.76;70.00
35331;BME280;21441;52.190;20.910;2023-04-06T08:57:35;100556.22;;;3.54;72.05
35331;BME280;21441;52.190;20.910;2023-04-06T09:00:04;100558.47;;;3.47;73.93
35331;BME280;21441;52.190;20.910;2023-04-06T09:02:37;100551.03;;;3.52;74.91
35331;BME280;21441;52.190;20.910;2023-04-06T09:05:05;100557.50;;;3.59;74.01
35331;BME280;21441;52.190;20.910;2023-04-06T09:07:34;100551.50;;;3.46;75.73
35331;BME280;21441;52.190;20.910;2023-04-06T09:10:02;100541.69;;;3.70;75.04
35331;BME280;21441;52.190;20.910;2023-04-06T09:12:30;100537.75;;;3.65;73.23
35331;BME280;21441;52.190;20.910;2023-04-06T09:14:59;100531.66;;;3.18;75.57
35331;BME280;21441;52.190;20.910;2023-04-06T09:17:28;100535.41;;;3.38;77.79
35331;BME280;21441;52.190;20.910;2023-04-06T09:19:59;100540.09;;;3.34;79.44
35331;BME280;21441;52.190;20.910;2023-04-06T09:22:36;100537.44;;;3.23;81.01
35331;BME280;21441;52.190;20.910;2023-04-06T09:25:05;100539.66;;;3.63;79.52
35331;BME280;21441;52.190;20.910;2023-04-06T09:27:33;100535.47;;;3.71;79.80
35331;BME280;21441;52.190;20.910;2023-04-06T09:30:05;100537.75;;;3.87;78.18
35331;BME280;21441;52.190;20.910;2023-04-06T09:32:44;100525.03;;;3.70;78.93
35331;BME280;21441;52.190;20.910;2023-04-06T09:35:12;100528.75;;;3.67;80.74
35331;BME280;21441;52.190;20.910;2023-04-06T09:37:40;100527.03;;;3.55;81.53
35331;BME280;21441;52.190;20.910;2023-04-06T09:40:09;100518.16;;;3.34;82.21
35331;BME280;21441;52.190;20.910;2023-04-06T09:42:36;100526.09;;;3.45;81.77
35331;BME280;21441;52.190;20.910;2023-04-06T09:45:04;100512.84;;;3.11;83.03
35331;BME280;21441;52.190;20.910;2023-04-06T09:47:32;100526.00;;;3.00;85.28
35331;BME280;21441;52.190;20.910;2023-04-06T09:50:00;100523.44;;;2.87;91.94
35331;BME280;21441;52.190;20.910;2023-04-06T09:52:32;100515.25;;;3.14;95.44
35331;BME280;21441;52.190;20.910;2023-04-06T09:55:02;100508.66;;;3.20;97.52
35331;BME280;21441;52.190;20.910;2023-04-06T09:57:32;100504.28;;;3.43;95.36
35331;BME280;21441;52.190;20.910;2023-04-06T10:00:06;100504.63;;;3.38;96.13
35331;BME280;21441;52.190;20.910;2023-04-06T10:02:41;100502.94;;;3.37;97.10
35331;BME280;21441;52.190;20.910;2023-04-06T10:05:18;100503.56;;;3.63;97.13
35331;BME280;21441;52.190;20.910;2023-04-06T10:07:48;100505.81;;;3.34;96.81
35331;BME280;21441;52.190;20.910;2023-04-06T10:10:19;100506.19;;;3.52;95.86
35331;BME280;21441;52.190;20.910;2023-04-06T10:12:47;100499.09;;;3.30;98.28
35331;BME280;21441;52.190;20.910;2023-04-06T10:15:15;100499.00;;;3.32;97.57
35331;BME280;21441;52.190;20.910;2023-04-06T10:17:43;100490.56;;;3.15;100.00
35331;BME280;21441;52.190;20.910;2023-04-06T10:20:14;100494.16;;;3.14;100.00
35331;BME280;21441;52.190;20.910;2023-04-06T10:22:45;100490.56;;;3.15;100.00
35331;BME280;21441;52.190;20.910;2023-04-06T10:25:27;100492.94;;;3.07;100.00
35331;BME280;21441;52.190;20.910;2023-04-06T10:28:02;100489.56;;;2.94;100.00
35331;BME280;21441;52.190;20.910;2023-04-06T10:30:32;100490.19;;;3.08;100.00
35331;BME280;21441;52.190;20.910;2023-04-06T10:32:59;100495.13;;;3.24;100.00
35331;BME280;21441;52.190;20.910;2023-04-06T10:35:37;100483.84;;;3.22;100.00
35331;BME280;21441;52.190;20.910;2023-04-06T10:38:05;100481.19;;;3.11;100.00
35331;BME280;21441;52.190;20.910;2023-04-06T10:40:37;100471.41;;;3.24;100.00
35331;BME280;21441;52.190;20.910;2023-04-06T10:43:08;100477.28;;;3.28;100.00
35331;BME280;21441;52.190;20.910;2023-04-06T10:45:36;100464.22;;;3.26;100.00
35331;BME280;21441;52.190;20.910;2023-04-06T10:48:13;100473.09;;;3.48;100.00
35331;BME280;21441;52.190;20.910;2023-04-06T10:50:43;100458.81;;;3.39;100.00
35331;BME280;21441;52.190;20.910;2023-04-06T10:53:10;100462.66;;;3.46;100.00
35331;BME280;21441;52.190;20.910;2023-04-06T10:55:40;100456.81;;;3.43;100.00
35331;BME280;21441;52.190;20.910;2023-04-06T10:58:07;100458.81;;;3.28;100.00
35331;BME280;21441;52.190;20.910;2023-04-06T11:00:35;100452.94;;;3.36;100.00
35331;BME280;21441;52.190;20.910;2023-04-06T11:03:02;100453.31;;;3.31;100.00
35331;BME280;21441;52.190;20.910;2023-04-06T11:05:29;100453.81;;;3.36;100.00
35331;BME280;21441;52.190;20.910;2023-04-06T11:07:57;100446.22;;;3.20;100.00
35331;BME280;21441;52.190;20.910;2023-04-06T11:10:24;100454.03;;;3.33;100.00
35331;BME280;21441;52.190;20.910;2023-04-06T11:12:56;100450.91;;;3.39;100.00
35331;BME280;21441;52.190;20.910;2023-04-06T11:15:23;100444.44;;;3.43;100.00
35331;BME280;21441;52.190;20.910;2023-04-06T11:17:50;100439.28;;;3.30;100.00
35331;BME280;21441;52.190;20.910;2023-04-06T11:20:18;100442.91;;;3.29;100.00
35331;BME280;21441;52.190;20.910;2023-04-06T11:22:49;100438.44;;;3.30;100.00
35331;BME280;21441;52.190;20.910;2023-04-06T11:25:17;100439.13;;;2.98;100.00
35331;BME280;21441;52.190;20.910;2023-04-06T11:27:45;100436.53;;;3.21;100.00
35331;BME280;21441;52.190;20.910;2023-04-06T11:30:15;100428.97;;;3.16;100.00
35331;BME280;21441;52.190;20.910;2023-04-06T11:32:42;100430.91;;;3.25;100.00
35331;BME280;21441;52.190;20.910;2023-04-06T11:35:11;100427.44;;;3.36;100.00
35331;BME280;21441;52.190;20.910;2023-04-06T11:37:39;100424.28;;;3.31;100.00
35331;BME280;21441;52.190;20.910;2023-04-06T11:40:08;100415.56;;;3.30;100.00
35331;BME280;21441;52.190;20.910;2023-04-06T11:42:35;100413.03;;;3.40;100.00
35331;BME280;21441;52.190;20.910;2023-04-06T11:45:04;100421.66;;;3.31;100.00
35331;BME280;21441;52.190;20.910;2023-04-06T11:47:33;100428.47;;;3.11;100.00
35331;BME280;21441;52.190;20.910;2023-04-06T11:50:08;100412.91;;;3.19;100.00
35331;BME280;21441;52.190;20.910;2023-04-06T11:52:35;100409.81;;;3.25;100.00
35331;BME280;21441;52.190;20.910;2023-04-06T11:55:11;100405.25;;;3.16;100.00
35331;BME280;21441;52.190;20.910;2023-04-06T11:57:39;100397.00;;;3.21;100.00
35331;BME280;21441;52.190;20.910;2023-04-06T12:00:07;100398.41;;;3.36;100.00
35331;BME280;21441;52.190;20.910;2023-04-06T12:02:36;100399.72;;;3.30;100.00
35331;BME280;21441;52.190;20.910;2023-04-06T12:05:05;100395.75;;;3.25;100.00
35331;BME280;21441;52.190;20.910;2023-04-06T12:07:33;100396.00;;;3.33;100.00
35331;BME280;21441;52.190;20.910;2023-04-06T12:10:01;100390.25;;;3.39;100.00
35331;BME280;21441;52.190;20.910;2023-04-06T12:12:29;100382.00;;;3.33;100.00
35331;BME280;21441;52.190;20.910;2023-04-06T12:14:56;100383.03;;;3.53;100.00
35331;BME280;21441;52.190;20.910;2023-04-06T12:17:24;100382.69;;;3.46;100.00
35331;BME280;21441;52.190;20.910;2023-04-06T12:19:53;100372.50;;;3.53;100.00
35331;BME280;21441;52.190;20.910;2023-04-06T12:22:20;100363.28;;;3.47;100.00
35331;BME280;21441;52.190;20.910;2023-04-06T12:24:47;100367.09;;;3.54;100.00
35331;BME280;21441;52.190;20.910;2023-04-06T12:27:14;100351.75;;;3.48;100.00
35331;BME280;21441;52.190;20.910;2023-04-06T12:29:42;100357.75;;;3.50;100.00
35331;BME280;21441;52.190;20.910;2023-04-06T12:32:09;100354.22;;;3.72;100.00
35331;BME280;21441;52.190;20.910;2023-04-06T12:34:37;100361.78;;;3.77;100.00
35331;BME280;21441;52.190;20.910;2023-04-06T12:37:06;100356.38;;;3.78;100.00
35331;BME280;21441;52.190;20.910;2023-04-06T12:39:33;100361.13;;;3.52;100.00
35331;BME280;21441;52.190;20.910;2023-04-06T12:42:01;100366.78;;;3.80;100.00
35331;BME280;21441;52.190;20.910;2023-04-06T12:44:28;100367.69;;;3.58;100.00
35331;BME280;21441;52.190;20.910;2023-04-06T12:46:55;100361.44;;;3.70;100.00
35331;BME280;21441;52.190;20.910;2023-04-06T12:49:23;100359.38;;;3.74;100.00
35331;BME280;21441;52.190;20.910;2023-04-06T12:51:50;100359.28;;;3.64;100.00